Time;durP1;ratioP1;P1;durP2;ratioP2;P2;SDS_P1;SDS_P2;PMS_P1;PMS_P2;Temp;Humidity;BMP_temperature;BMP_pressure;BME280_temperature;BME280_humidity;BME280_pressure;Samples;Min_cycle;Max_cycle;Signal;HPM_P1;HPM_P2
2022/08/14 00:02:04;;;;;;;3.83;2.80;;;26.10;46.70;;;;;;5052136;28;20112;-33
2022/08/14 00:04:31;;;;;;;2.47;2.28;;;26.20;46.90;;;;;;5050965;28;20021;-33
2022/08/14 00:06:56;;;;;;;3.75;2.80;;;26.10;46.90;;;;;;5052488;28;20028;-30
2022/08/14 00:09:22;;;;;;;3.20;2.70;;;26.10;47.00;;;;;;5050819;28;20385;-31
2022/08/14 00:11:48;;;;;;;3.22;2.70;;;26.10;47.10;;;;;;5052084;28;20443;-28
2022/08/14 00:14:15;;;;;;;3.78;2.90;;;26.00;47.20;;;;;;5052156;28;20024;-29
2022/08/14 00:16:41;;;;;;;3.38;3.05;;;26.00;47.50;;;;;;5052274;28;20025;-30
2022/08/14 00:19:07;;;;;;;3.30;3.00;;;25.90;47.60;;;;;;5051994;28;20426;-29
2022/08/14 00:21:33;;;;;;;3.33;2.75;;;25.90;47.80;;;;;;5052032;28;20090;-28
2022/08/14 00:23:58;;;;;;;3.75;2.88;;;25.80;47.80;;;;;;5052241;28;20025;-29
2022/08/14 00:26:24;;;;;;;3.15;2.85;;;25.80;48.10;;;;;;5052261;28;20074;-32
2022/08/14 00:28:51;;;;;;;3.03;2.72;;;25.80;48.30;;;;;;5051960;28;20032;-32
2022/08/14 00:31:17;;;;;;;4.30;3.05;;;25.70;48.40;;;;;;5051904;28;20017;-31
2022/08/14 00:33:42;;;;;;;3.15;2.90;;;25.70;48.50;;;;;;5052162;28;20499;-28
2022/08/14 00:36:08;;;;;;;4.57;3.08;;;25.70;48.60;;;;;;5054526;28;20441;-30
2022/08/14 00:38:34;;;;;;;3.28;3.00;;;25.60;48.60;;;;;;5055789;28;20025;-30
2022/08/14 00:41:00;;;;;;;3.38;2.65;;;25.60;48.70;;;;;;5055444;28;20458;-33
2022/08/14 00:43:26;;;;;;;3.22;2.90;;;25.60;48.80;;;;;;5055631;28;20494;-28
2022/08/14 00:45:51;;;;;;;3.20;2.90;;;25.60;48.90;;;;;;5055582;28;20021;-30
2022/08/14 00:48:17;;;;;;;4.07;2.72;;;25.60;49.00;;;;;;5055859;28;20460;-28
2022/08/14 00:50:43;;;;;;;4.82;3.10;;;25.60;49.20;;;;;;5055778;28;20029;-30
2022/08/14 00:53:09;;;;;;;3.95;2.58;;;25.50;49.20;;;;;;5055576;28;20056;-29
2022/08/14 00:55:40;;;;;;;3.45;3.15;;;25.50;49.30;;;;;;5055386;28;20033;-30
2022/08/14 01:00:50;;;;;;;3.03;2.70;;;25.40;49.60;;;;;;5055716;28;20036;-29
2022/08/14 01:03:18;;;;;;;3.85;3.30;;;25.40;49.60;;;;;;5055182;28;20024;-31
2022/08/14 01:05:46;;;;;;;3.50;3.20;;;25.30;49.70;;;;;;5054937;28;20040;-31
2022/08/14 01:08:13;;;;;;;3.42;3.08;;;25.30;49.90;;;;;;5055314;28;20040;-29
2022/08/14 01:10:50;;;;;;;3.50;3.20;;;25.30;50.00;;;;;;5054992;28;20025;-29
2022/08/14 01:13:20;;;;;;;3.50;3.03;;;25.30;50.10;;;;;;5055173;28;20028;-33
2022/08/14 01:15:50;;;;;;;3.20;2.95;;;25.30;50.20;;;;;;5055392;28;20039;-29
2022/08/14 01:21:03;;;;;;;2.97;2.78;;;25.20;50.40;;;;;;5055042;28;20048;-30
2022/08/14 01:23:30;;;;;;;3.75;3.10;;;25.20;50.40;;;;;;5055003;28;20021;-29
2022/08/14 01:25:57;;;;;;;3.15;2.95;;;25.10;50.40;;;;;;5054848;28;20009;-29
2022/08/14 01:28:25;;;;;;;3.13;2.92;;;25.10;50.50;;;;;;5054772;28;20098;-30
2022/08/14 01:30:55;;;;;;;4.10;3.35;;;25.10;50.70;;;;;;5054680;28;20021;-30
2022/08/14 01:33:27;;;;;;;3.25;2.95;;;25.10;50.70;;;;;;5054371;28;20102;-29
2022/08/14 01:35:55;;;;;;;5.63;3.08;;;25.10;50.80;;;;;;5054569;28;20028;-31
2022/08/14 01:38:22;;;;;;;3.72;3.42;;;25.10;50.90;;;;;;5054844;28;20082;-28
2022/08/14 01:40:48;;;;;;;3.63;3.33;;;25.00;50.90;;;;;;5054251;28;20405;-31
2022/08/14 01:43:16;;;;;;;3.13;2.85;;;25.00;51.20;;;;;;5054706;28;20017;-29
2022/08/14 01:45:43;;;;;;;3.58;2.70;;;24.90;51.20;;;;;;5054500;28;20024;-29
2022/08/14 01:48:09;;;;;;;3.38;3.03;;;24.90;51.40;;;;;;5053594;28;20052;-29
2022/08/14 01:50:36;;;;;;;3.35;2.97;;;24.90;51.50;;;;;;5054615;28;20028;-30
2022/08/14 01:53:02;;;;;;;3.30;3.00;;;24.80;51.50;;;;;;5054418;28;20112;-32
2022/08/14 01:55:30;;;;;;;3.72;3.42;;;24.80;51.60;;;;;;5054534;28;20033;-30
2022/08/14 01:57:56;;;;;;;4.88;3.40;;;24.80;51.70;;;;;;5054133;28;20063;-33
2022/08/14 02:00:23;;;;;;;3.58;3.28;;;24.80;51.80;;;;;;5054344;28;20367;-34
2022/08/14 02:02:49;;;;;;;3.80;3.50;;;24.70;51.80;;;;;;5054089;28;20018;-34
2022/08/14 02:05:14;;;;;;;3.95;3.15;;;24.70;51.90;;;;;;5053706;28;20025;-35
2022/08/14 02:07:42;;;;;;;3.58;3.22;;;24.70;52.00;;;;;;5053952;28;20025;-30
2022/08/14 02:10:11;;;;;;;3.50;3.20;;;24.70;52.10;;;;;;5053992;28;20021;-30
2022/08/14 02:12:36;;;;;;;3.50;3.20;;;24.70;52.90;;;;;;5053979;28;20025;-33
2022/08/14 02:15:04;;;;;;;4.00;3.60;;;24.70;52.30;;;;;;5053729;28;20029;-34
2022/08/14 02:17:32;;;;;;;4.00;3.63;;;24.60;52.40;;;;;;5053498;28;20037;-36
2022/08/14 02:19:58;;;;;;;3.67;3.38;;;24.60;52.60;;;;;;5053754;28;20461;-29
2022/08/14 02:22:25;;;;;;;3.42;3.13;;;24.50;52.50;;;;;;5053596;28;20017;-30
2022/08/14 02:24:50;;;;;;;3.65;3.35;;;24.50;52.60;;;;;;5053549;28;20052;-31
2022/08/14 02:27:17;;;;;;;5.25;3.40;;;24.50;52.70;;;;;;5053395;28;20040;-30
2022/08/14 02:29:43;;;;;;;4.05;3.22;;;24.50;52.70;;;;;;5053437;28;20075;-32
2022/08/14 02:32:10;;;;;;;3.80;3.40;;;24.50;52.90;;;;;;5053704;28;20013;-30
2022/08/14 02:34:37;;;;;;;4.20;3.42;;;24.40;52.90;;;;;;5053797;28;20499;-30
2022/08/14 02:37:09;;;;;;;3.72;3.30;;;24.40;52.90;;;;;;5053685;28;20104;-29
2022/08/14 02:39:44;;;;;;;3.47;2.90;;;24.40;53.00;;;;;;5053335;28;20131;-30
2022/08/14 02:42:20;;;;;;;4.38;3.33;;;24.40;53.10;;;;;;5052145;28;20472;-29
2022/08/14 02:44:45;;;;;;;4.05;3.45;;;24.40;53.10;;;;;;5053216;28;20036;-29
2022/08/14 02:47:11;;;;;;;3.50;3.20;;;24.40;53.20;;;;;;5053661;28;20514;-31
2022/08/14 02:49:37;;;;;;;3.55;3.25;;;24.30;53.80;;;;;;5053366;28;20033;-34
2022/08/14 02:52:05;;;;;;;3.92;3.50;;;24.30;53.30;;;;;;5053045;28;20044;-34
2022/08/14 02:54:33;;;;;;;4.50;3.30;;;24.30;53.40;;;;;;5051947;28;20460;-29
2022/08/14 02:56:59;;;;;;;3.58;3.28;;;24.30;53.40;;;;;;5053075;28;20025;-29
2022/08/14 02:59:30;;;;;;;3.80;3.50;;;24.30;53.60;;;;;;5053213;28;20026;-35
2022/08/14 03:01:56;;;;;;;3.60;3.30;;;24.30;53.70;;;;;;5053051;28;20032;-31
2022/08/14 03:04:22;;;;;;;3.80;3.22;;;24.20;53.70;;;;;;5052841;28;20048;-37
2022/08/14 03:06:49;;;;;;;4.00;3.60;;;24.20;53.80;;;;;;5052901;28;20029;-29
2022/08/14 03:09:15;;;;;;;3.85;3.55;;;24.20;53.90;;;;;;5052847;28;20028;-31
2022/08/14 03:11:43;;;;;;;4.00;3.53;;;24.20;53.90;;;;;;5053058;28;20040;-30
2022/08/14 03:14:13;;;;;;;4.03;3.33;;;24.20;54.10;;;;;;5052981;28;20541;-30
2022/08/14 03:16:40;;;;;;;4.20;3.80;;;24.20;54.10;;;;;;5052809;28;20499;-29
2022/08/14 03:19:07;;;;;;;4.20;3.75;;;24.20;54.10;;;;;;5052794;28;20100;-32
2022/08/14 03:21:35;;;;;;;3.63;3.28;;;24.20;54.10;;;;;;5052580;28;20027;-30
2022/08/14 03:24:12;;;;;;;4.88;3.80;;;24.10;54.10;;;;;;5052828;28;20108;-30
2022/08/14 03:26:43;;;;;;;4.85;3.75;;;24.10;54.20;;;;;;5052965;28;20023;-31
2022/08/14 03:29:12;;;;;;;3.90;3.60;;;24.10;54.30;;;;;;5052476;28;20108;-30
2022/08/14 03:31:39;;;;;;;5.00;3.95;;;24.10;54.30;;;;;;5052413;28;20036;-29
2022/08/14 03:34:09;;;;;;;3.97;3.65;;;24.00;54.40;;;;;;5052342;28;20025;-29
2022/08/14 03:36:35;;;;;;;4.28;3.72;;;24.00;54.40;;;;;;5052686;28;20570;-29
2022/08/14 03:39:04;;;;;;;4.00;3.60;;;24.00;54.50;;;;;;5052558;28;20021;-34
2022/08/14 03:41:30;;;;;;;3.90;3.53;;;24.00;54.60;;;;;;5052455;28;20484;-29
2022/08/14 03:43:58;;;;;;;3.97;3.58;;;24.00;54.60;;;;;;5052478;28;20017;-34
2022/08/14 03:46:26;;;;;;;4.57;3.70;;;24.00;54.70;;;;;;5052714;28;20488;-35
2022/08/14 03:48:53;;;;;;;4.00;3.58;;;23.90;54.70;;;;;;5052175;28;20369;-30
2022/08/14 03:51:20;;;;;;;4.32;3.60;;;23.90;54.80;;;;;;5050955;28;20021;-29
2022/08/14 03:53:47;;;;;;;4.07;3.67;;;24.00;55.00;;;;;;5052209;28;20033;-32
2022/08/14 03:56:16;;;;;;;4.10;3.70;;;23.90;54.90;;;;;;5052446;28;20025;-31
2022/08/14 03:58:45;;;;;;;5.40;3.67;;;23.90;55.00;;;;;;5051120;28;20480;-30
2022/08/14 04:01:11;;;;;;;3.85;3.55;;;23.80;55.10;;;;;;5052359;28;20025;-31
2022/08/14 04:03:37;;;;;;;4.20;3.80;;;23.80;55.20;;;;;;5052151;28;20459;-29
2022/08/14 04:06:03;;;;;;;4.05;3.63;;;23.80;55.20;;;;;;5051030;28;20112;-31
2022/08/14 04:08:29;;;;;;;4.68;4.28;;;23.80;55.30;;;;;;5052120;28;20021;-29
2022/08/14 04:10:56;;;;;;;4.38;3.97;;;23.80;55.30;;;;;;5054100;28;20017;-35
2022/08/14 04:13:21;;;;;;;4.88;3.80;;;23.80;55.40;;;;;;5056264;28;20091;-29
2022/08/14 04:15:48;;;;;;;4.35;3.95;;;23.70;55.40;;;;;;5056339;28;20146;-30
2022/08/14 04:18:13;;;;;;;4.10;3.70;;;23.70;55.50;;;;;;5056026;28;20024;-29
2022/08/14 04:20:41;;;;;;;4.10;3.70;;;23.70;55.60;;;;;;5056292;28;20025;-31
2022/08/14 04:23:08;;;;;;;4.05;3.65;;;23.70;55.70;;;;;;5055977;28;20013;-30
2022/08/14 04:25:35;;;;;;;4.53;4.10;;;23.70;55.70;;;;;;5055643;28;20025;-30
2022/08/14 04:28:05;;;;;;;4.40;4.00;;;23.70;55.70;;;;;;5055519;28;20037;-30
2022/08/14 04:30:37;;;;;;;4.60;3.92;;;23.70;55.80;;;;;;5055661;28;20032;-29
2022/08/14 04:33:07;;;;;;;4.25;3.88;;;23.70;55.80;;;;;;5055716;28;20047;-33
2022/08/14 04:35:34;;;;;;;5.00;4.03;;;23.70;55.90;;;;;;5055343;28;20078;-35
2022/08/14 04:43:38;;;;;;;5.30;4.00;;;23.60;56.00;;;;;;5055720;28;20499;-29
2022/08/14 04:46:07;;;;;;;5.55;4.35;;;23.60;56.10;;;;;;5055449;28;20478;-32
2022/08/14 04:48:32;;;;;;;4.28;3.92;;;23.60;56.10;;;;;;5055415;28;20025;-31
2022/08/14 04:50:59;;;;;;;4.68;4.28;;;23.60;56.10;;;;;;5055426;28;20143;-33
2022/08/14 04:53:27;;;;;;;3.95;3.55;;;23.50;56.20;;;;;;5055806;28;20028;-29
2022/08/14 04:55:54;;;;;;;4.20;3.85;;;23.50;56.30;;;;;;5055408;28;20029;-29
2022/08/14 04:58:26;;;;;;;4.80;4.25;;;23.50;56.30;;;;;;5055207;28;20028;-32
2022/08/14 05:00:55;;;;;;;5.00;4.15;;;23.50;56.40;;;;;;5055400;28;20055;-30
2022/08/14 05:03:22;;;;;;;5.38;4.13;;;23.50;56.30;;;;;;5055329;28;20024;-29
2022/08/14 05:05:53;;;;;;;4.55;4.03;;;23.50;56.30;;;;;;5053838;28;20021;-30
2022/08/14 05:08:19;;;;;;;6.35;4.18;;;23.50;56.40;;;;;;5053840;28;20021;-29
2022/08/14 05:10:49;;;;;;;4.53;4.13;;;23.50;56.40;;;;;;5055301;28;20083;-30
2022/08/14 05:13:15;;;;;;;4.32;3.90;;;23.50;56.40;;;;;;5054762;28;20094;-30
2022/08/14 05:15:41;;;;;;;4.40;4.00;;;23.50;56.50;;;;;;5054721;28;20021;-30
2022/08/14 05:18:12;;;;;;;4.78;4.10;;;23.50;56.50;;;;;;5054344;28;20477;-28
2022/08/14 05:21:05;;;;;;;4.40;4.00;;;23.60;56.60;;;;;;5053059;28;20461;-29
2022/08/14 05:23:34;;;;;;;4.25;3.83;;;23.60;56.60;;;;;;5051567;28;20040;-30
2022/08/14 05:26:01;;;;;;;4.70;4.28;;;23.60;56.60;;;;;;5055100;28;20083;-31
2022/08/14 05:28:30;;;;;;;5.18;4.00;;;23.50;56.60;;;;;;5054367;28;20104;-29
2022/08/14 05:31:02;;;;;;;5.47;4.72;;;23.60;56.70;;;;;;5054410;28;20448;-31
2022/08/14 05:33:29;;;;;;;5.32;4.32;;;23.50;56.80;;;;;;5054632;28;20028;-29
2022/08/14 05:35:59;;;;;;;4.80;4.40;;;23.50;56.80;;;;;;5054558;28;20350;-29
2022/08/14 05:38:27;;;;;;;4.57;4.07;;;23.60;56.90;;;;;;5054244;28;20075;-32
2022/08/14 05:40:53;;;;;;;5.57;4.53;;;23.60;56.90;;;;;;5054007;28;20107;-29
2022/08/14 05:43:19;;;;;;;4.32;3.92;;;23.50;56.90;;;;;;5054027;28;20017;-28
2022/08/14 05:45:45;;;;;;;6.53;4.00;;;23.60;56.90;;;;;;5052621;28;20017;-29
2022/08/14 05:48:14;;;;;;;4.43;4.03;;;23.60;57.00;;;;;;5054213;28;20017;-29
2022/08/14 05:50:39;;;;;;;4.65;4.22;;;23.60;56.90;;;;;;5054161;28;20333;-30
2022/08/14 05:53:05;;;;;;;4.97;4.20;;;23.60;56.90;;;;;;5054487;28;20025;-28
2022/08/14 05:55:31;;;;;;;5.28;4.25;;;23.70;57.00;;;;;;5053943;28;20033;-29
2022/08/14 05:58:04;;;;;;;4.63;4.10;;;23.70;56.90;;;;;;5053821;28;20112;-30
2022/08/14 06:00:41;;;;;;;4.43;4.03;;;23.70;56.90;;;;;;5054054;28;20087;-30
2022/08/14 06:03:08;;;;;;;5.00;4.50;;;23.70;56.80;;;;;;5054086;28;20100;-29
2022/08/14 06:05:35;;;;;;;5.00;4.50;;;23.80;56.90;;;;;;5052573;28;20021;-31
2022/08/14 06:08:01;;;;;;;5.18;4.40;;;23.80;56.80;;;;;;5053845;28;20025;-32
2022/08/14 06:10:29;;;;;;;5.88;4.60;;;23.80;56.80;;;;;;5053661;28;20426;-28
2022/08/14 06:13:00;;;;;;;5.25;4.53;;;23.90;56.80;;;;;;5053550;28;20107;-29
2022/08/14 06:15:26;;;;;;;4.50;4.10;;;24.00;56.70;;;;;;5053721;28;20025;-31
2022/08/14 06:17:54;;;;;;;4.28;3.95;;;24.00;56.60;;;;;;5053482;28;20087;-30
2022/08/14 06:20:20;;;;;;;6.20;4.65;;;24.00;56.60;;;;;;5053346;28;20086;-29
2022/08/14 06:22:46;;;;;;;5.18;4.68;;;24.00;56.70;;;;;;5053393;28;20422;-33
2022/08/14 06:25:13;;;;;;;4.20;3.90;;;24.00;56.70;;;;;;5053608;28;20050;-30
2022/08/14 06:27:43;;;;;;;6.13;4.55;;;24.00;56.80;;;;;;5053560;28;20111;-29
2022/08/14 06:30:12;;;;;;;6.38;4.75;;;24.00;56.80;;;;;;5054008;28;20472;-29
2022/08/14 06:32:38;;;;;;;6.32;4.63;;;24.00;56.90;;;;;;5053174;28;20035;-29
2022/08/14 06:35:07;;;;;;;4.72;4.22;;;24.00;56.90;;;;;;5053701;28;20357;-31
2022/08/14 06:37:59;;;;;;;5.25;4.75;;;24.00;57.00;;;;;;5053281;28;20027;-29
2022/08/14 06:40:33;;;;;;;4.88;4.47;;;24.00;56.90;;;;;;5052462;28;20040;-30
2022/08/14 06:43:04;;;;;;;5.45;4.60;;;24.10;56.90;;;;;;5052219;28;20495;-29
2022/08/14 06:45:30;;;;;;;5.75;4.55;;;24.10;56.80;;;;;;5053112;28;20499;-29
2022/08/14 06:47:56;;;;;;;5.15;4.65;;;24.20;56.80;;;;;;5053032;28;20092;-30
2022/08/14 06:50:22;;;;;;;6.07;4.55;;;24.20;56.80;;;;;;5053045;28;20450;-30
2022/08/14 06:52:49;;;;;;;5.75;4.40;;;24.20;56.90;;;;;;5053188;28;20059;-30
2022/08/14 06:55:17;;;;;;;5.25;4.75;;;24.20;56.80;;;;;;5052902;28;20039;-30
2022/08/14 06:57:47;;;;;;;5.20;4.65;;;24.20;56.80;;;;;;5053012;28;20469;-29
2022/08/14 07:00:27;;;;;;;5.82;5.25;;;24.30;56.80;;;;;;5053350;28;20036;-29
2022/08/14 07:05:56;;;;;;;6.10;5.15;;;24.30;56.80;;;;;;5053111;28;20052;-33
2022/08/14 07:08:29;;;;;;;5.85;5.25;;;24.30;56.90;;;;;;5051717;28;20029;-27
2022/08/14 07:10:58;;;;;;;5.10;4.60;;;24.30;57.00;;;;;;5052733;28;20021;-34
2022/08/14 07:13:25;;;;;;;5.45;4.95;;;24.30;57.00;;;;;;5051782;28;20039;-30
2022/08/14 07:15:54;;;;;;;5.70;5.20;;;24.30;57.00;;;;;;5052975;28;20025;-42
2022/08/14 07:18:28;;;;;;;5.45;4.97;;;24.40;57.00;;;;;;5052755;28;20029;-39
2022/08/14 07:20:55;;;;;;;5.90;5.38;;;24.40;57.00;;;;;;5051795;28;20032;-41
2022/08/14 07:23:25;;;;;;;5.20;4.70;;;24.50;57.00;;;;;;5052624;28;20427;-39
2022/08/14 07:25:55;;;;;;;5.20;4.70;;;24.50;56.90;;;;;;5052825;28;20384;-42
2022/08/14 07:28:24;;;;;;;5.55;5.05;;;24.60;57.50;;;;;;5052535;28;20017;-41
2022/08/14 07:30:54;;;;;;;5.50;5.00;;;24.70;56.90;;;;;;5052732;28;20091;-40
2022/08/14 07:33:20;;;;;;;5.40;4.90;;;24.70;56.90;;;;;;5052699;28;20393;-38
2022/08/14 07:35:46;;;;;;;5.43;4.93;;;24.70;56.80;;;;;;5052409;28;20029;-38
2022/08/14 07:38:19;;;;;;;5.00;4.60;;;24.70;56.70;;;;;;5052552;28;20033;-41
2022/08/14 07:40:45;;;;;;;7.13;5.05;;;24.80;56.80;;;;;;5052317;28;20048;-40
2022/08/14 07:43:12;;;;;;;5.47;4.65;;;24.90;56.70;;;;;;5052343;28;20079;-41
2022/08/14 07:45:39;;;;;;;5.28;4.65;;;25.00;56.60;;;;;;5054032;28;20025;-40
2022/08/14 07:48:05;;;;;;;5.35;4.85;;;25.00;56.50;;;;;;5057037;28;20069;-40
2022/08/14 07:50:32;;;;;;;5.40;4.90;;;25.10;56.50;;;;;;5056291;28;20032;-40
2022/08/14 07:52:58;;;;;;;5.53;5.03;;;25.20;56.50;;;;;;5056706;28;20056;-38
2022/08/14 07:55:24;;;;;;;5.40;4.80;;;25.20;56.30;;;;;;5056513;28;20384;-42
2022/08/14 07:57:51;;;;;;;5.45;4.95;;;25.30;56.30;;;;;;5056195;28;20028;-41
2022/08/14 08:00:19;;;;;;;5.85;5.35;;;25.40;56.30;;;;;;5056656;28;20071;-40
2022/08/14 08:02:46;;;;;;;6.03;5.30;;;25.40;56.20;;;;;;5056208;28;20377;-38
2022/08/14 08:05:14;;;;;;;6.03;4.90;;;25.50;56.10;;;;;;5056041;28;20017;-30
2022/08/14 08:07:41;;;;;;;6.95;5.20;;;25.60;56.20;;;;;;5055841;28;20445;-27
2022/08/14 08:10:33;;;;;;;5.65;5.03;;;25.60;56.10;;;;;;5055961;28;20412;-28
2022/08/14 08:13:06;;;;;;;5.40;4.80;;;25.70;56.00;;;;;;5055947;28;20025;-43
2022/08/14 08:15:35;;;;;;;5.32;4.82;;;25.80;55.90;;;;;;5055952;28;20111;-43
2022/08/14 08:18:03;;;;;;;5.47;4.97;;;25.90;55.90;;;;;;5055767;28;20036;-41
2022/08/14 08:20:31;;;;;;;6.20;5.60;;;25.90;55.90;;;;;;5055553;28;20017;-43
2022/08/14 08:22:58;;;;;;;5.43;4.93;;;26.00;55.80;;;;;;5055341;28;20017;-26
2022/08/14 08:25:25;;;;;;;7.10;5.20;;;26.00;55.70;;;;;;5055454;28;20087;-26
2022/08/14 08:28:01;;;;;;;6.50;5.00;;;26.10;55.60;;;;;;5055293;28;20021;-25
2022/08/14 08:30:29;;;;;;;5.43;4.93;;;26.20;55.60;;;;;;5055495;28;20472;-25
2022/08/14 08:32:57;;;;;;;5.70;4.95;;;26.20;55.30;;;;;;5055202;28;20025;-26
2022/08/14 08:35:25;;;;;;;5.85;5.03;;;26.30;55.30;;;;;;5055601;28;20108;-28
2022/08/14 08:37:52;;;;;;;5.97;4.95;;;26.40;55.10;;;;;;5055230;28;20496;-26
2022/08/14 08:40:35;;;;;;;5.13;4.60;;;26.50;55.10;;;;;;5054380;28;20045;-25
2022/08/14 08:43:25;;;;;;;5.25;4.85;;;26.60;55.00;;;;;;5052698;28;20025;-26
2022/08/14 08:45:59;;;;;;;5.35;4.85;;;26.70;54.90;;;;;;5053852;28;20017;-30
2022/08/14 08:48:28;;;;;;;5.20;4.70;;;26.80;54.60;;;;;;5053905;28;20036;-27
2022/08/14 08:50:59;;;;;;;5.22;4.80;;;26.80;54.40;;;;;;5053701;28;20476;-26
2022/08/14 08:53:33;;;;;;;6.15;5.10;;;26.90;54.40;;;;;;5053727;28;20025;-27
2022/08/14 08:55:59;;;;;;;6.70;4.88;;;27.00;54.30;;;;;;5053818;28;20425;-25
2022/08/14 08:58:25;;;;;;;4.95;4.53;;;27.10;54.20;;;;;;5053567;28;20053;-26
2022/08/14 09:00:53;;;;;;;4.82;4.35;;;27.10;53.90;;;;;;5052303;28;20040;-26
2022/08/14 09:03:23;;;;;;;6.15;4.90;;;27.20;53.90;;;;;;5053987;28;20484;-28
2022/08/14 09:05:51;;;;;;;4.68;4.28;;;27.20;54.40;;;;;;5053763;28;20465;-25
2022/08/14 09:08:26;;;;;;;4.85;4.38;;;27.30;53.70;;;;;;5053317;28;20100;-39
2022/08/14 09:10:53;;;;;;;7.60;4.90;;;27.40;53.60;;;;;;5053426;28;20029;-38
2022/08/14 09:13:21;;;;;;;4.78;4.38;;;27.50;53.50;;;;;;5053872;28;20025;-43
2022/08/14 09:15:51;;;;;;;5.10;4.60;;;27.60;53.30;;;;;;5054264;28;20074;-38
2022/08/14 09:18:18;;;;;;;5.45;4.72;;;27.60;53.10;;;;;;5053639;28;20025;-42
2022/08/14 09:20:48;;;;;;;5.70;4.70;;;27.70;53.10;;;;;;5053135;28;20021;-40
2022/08/14 09:23:14;;;;;;;5.18;4.63;;;27.80;53.10;;;;;;5053579;28;20128;-40
2022/08/14 09:25:43;;;;;;;5.72;4.90;;;27.80;53.00;;;;;;5053267;28;20021;-41
2022/08/14 09:28:10;;;;;;;5.25;4.53;;;27.90;52.70;;;;;;5052977;28;20032;-42
2022/08/14 09:30:40;;;;;;;4.50;4.10;;;27.90;52.60;;;;;;5053007;28;20104;-25
2022/08/14 09:33:33;;;;;;;4.57;4.15;;;27.90;52.50;;;;;;5053348;28;20425;-27
2022/08/14 09:36:42;;;;;;;5.00;4.60;;;28.00;52.30;;;;;;5053021;28;20460;-27
2022/08/14 09:39:35;;;;;;;4.90;4.50;;;28.10;52.10;;;;;;5016234;28;1057442;-25
2022/08/14 09:42:32;;;;;;;4.32;3.92;;;28.20;52.00;;;;;;5053940;28;20036;-24
2022/08/14 09:45:14;;;;;;;4.53;4.13;;;28.20;51.60;;;;;;5054035;28;20112;-28
2022/08/14 09:47:41;;;;;;;5.07;4.43;;;28.30;51.50;;;;;;5053760;28;20033;-37
2022/08/14 09:50:19;;;;;;;4.68;4.22;;;28.40;51.30;;;;;;5054088;28;20035;-42
2022/08/14 09:52:53;;;;;;;4.35;4.00;;;28.40;51.10;;;;;;5053798;28;20108;-42
2022/08/14 09:55:20;;;;;;;5.30;3.90;;;28.50;51.10;;;;;;5053855;28;20189;-41
2022/08/14 09:57:46;;;;;;;4.30;3.95;;;28.60;51.00;;;;;;5053576;28;20025;-27
2022/08/14 10:00:13;;;;;;;4.70;4.30;;;28.70;51.00;;;;;;5053845;28;20115;-25
2022/08/14 10:02:49;;;;;;;4.78;4.28;;;28.80;50.80;;;;;;5053581;28;20512;-29
2022/08/14 10:05:25;;;;;;;4.57;4.18;;;28.80;50.70;;;;;;5053822;28;20112;-26
2022/08/14 10:07:51;;;;;;;5.50;4.07;;;28.80;50.80;;;;;;5053152;28;20333;-28
2022/08/14 10:10:38;;;;;;;4.32;3.92;;;28.80;50.60;;;;;;5053797;28;20036;-43
2022/08/14 10:13:20;;;;;;;4.40;4.00;;;28.90;50.40;;;;;;5053324;28;20037;-44
2022/08/14 10:15:48;;;;;;;4.00;3.70;;;29.00;50.20;;;;;;5053376;28;20037;-42
2022/08/14 10:18:15;;;;;;;3.83;3.50;;;29.00;50.10;;;;;;5053341;28;20404;-41
2022/08/14 10:20:50;;;;;;;10.10;4.75;;;29.10;50.10;;;;;;5053459;28;20048;-29
2022/08/14 10:23:18;;;;;;;4.22;3.92;;;29.20;49.80;;;;;;5053433;28;20078;-29
2022/08/14 10:25:51;;;;;;;4.43;4.00;;;29.20;49.70;;;;;;5053081;28;20033;-30
2022/08/14 10:28:19;;;;;;;5.80;4.30;;;29.20;49.60;;;;;;5053373;28;20396;-29
2022/08/14 10:30:50;;;;;;;7.38;4.47;;;29.30;49.60;;;;;;5051925;28;20021;-28
2022/08/14 10:33:27;;;;;;;5.93;4.18;;;29.30;49.50;;;;;;5052076;28;20468;-34
2022/08/14 10:35:53;;;;;;;4.30;3.90;;;29.30;49.50;;;;;;5052974;28;20043;-32
2022/08/14 10:38:33;;;;;;;4.15;3.85;;;29.40;49.50;;;;;;5052896;28;20020;-33
2022/08/14 10:41:13;;;;;;;4.53;3.90;;;29.50;49.40;;;;;;5052828;28;20048;-29
2022/08/14 10:43:40;;;;;;;6.07;3.50;;;29.60;49.00;;;;;;5052977;28;20166;-30
2022/08/14 10:46:14;;;;;;;3.80;3.50;;;29.60;48.90;;;;;;5053142;28;20032;-29
2022/08/14 10:48:41;;;;;;;4.57;3.75;;;29.70;48.50;;;;;;5053125;28;20388;-30
2022/08/14 10:51:07;;;;;;;3.80;3.50;;;29.80;48.30;;;;;;5052863;28;20025;-31
2022/08/14 10:53:35;;;;;;;4.38;3.67;;;29.90;48.00;;;;;;5052835;28;20443;-29
2022/08/14 10:56:06;;;;;;;4.28;3.58;;;30.00;47.70;;;;;;5053139;28;20520;-33
2022/08/14 10:58:32;;;;;;;3.75;3.45;;;30.10;47.50;;;;;;5052644;28;20039;-32
2022/08/14 11:01:00;;;;;;;4.13;3.30;;;30.20;47.30;;;;;;5052952;28;20029;-34
2022/08/14 11:03:37;;;;;;;3.60;3.30;;;30.30;47.70;;;;;;5052728;28;20074;-30
2022/08/14 11:06:21;;;;;;;4.18;3.78;;;30.40;47.00;;;;;;5052601;28;20032;-30
2022/08/14 11:08:48;;;;;;;3.70;3.35;;;30.40;46.80;;;;;;5052597;28;20032;-32
2022/08/14 11:11:14;;;;;;;3.42;3.20;;;30.50;46.80;;;;;;5052614;28;20109;-32
2022/08/14 11:13:49;;;;;;;3.80;3.50;;;30.50;46.40;;;;;;5052812;28;20036;-29
2022/08/14 11:16:17;;;;;;;4.10;3.70;;;30.60;46.40;;;;;;5052940;28;20105;-32
2022/08/14 11:18:45;;;;;;;4.00;3.70;;;30.70;46.10;;;;;;5052152;28;20112;-38
2022/08/14 11:21:16;;;;;;;3.80;3.50;;;30.70;45.80;;;;;;5052605;28;20502;-31
2022/08/14 11:23:44;;;;;;;5.45;3.60;;;30.70;45.80;;;;;;5052458;28;20421;-28
2022/08/14 11:26:11;;;;;;;4.00;3.60;;;30.80;45.50;;;;;;5052651;28;20021;-30
2022/08/14 11:28:39;;;;;;;3.70;3.40;;;30.80;45.40;;;;;;5052819;28;20120;-29
2022/08/14 11:31:09;;;;;;;5.72;3.80;;;30.90;45.20;;;;;;5052306;28;20121;-30
2022/08/14 11:33:36;;;;;;;3.60;3.30;;;31.00;45.00;;;;;;5052503;28;20099;-29
2022/08/14 11:36:05;;;;;;;3.67;3.38;;;31.00;44.50;;;;;;5052183;28;20059;-43
2022/08/14 11:38:41;;;;;;;3.40;3.10;;;31.10;44.60;;;;;;5052156;28;20044;-43
2022/08/14 11:41:09;;;;;;;4.30;3.30;;;31.20;44.40;;;;;;5052281;28;20094;-42
2022/08/14 11:43:39;;;;;;;5.07;3.28;;;31.30;44.50;;;;;;5052491;28;20098;-41
2022/08/14 11:46:05;;;;;;;3.47;3.08;;;31.40;44.30;;;;;;5052716;28;20441;-43
2022/08/14 11:48:31;;;;;;;3.28;2.97;;;31.40;44.10;;;;;;5052336;28;20033;-29
2022/08/14 11:50:56;;;;;;;3.20;3.00;;;31.50;43.90;;;;;;5052566;28;20198;-30
2022/08/14 11:53:29;;;;;;;3.45;3.10;;;31.60;43.70;;;;;;5052607;28;20035;-29
2022/08/14 11:56:04;;;;;;;3.35;2.97;;;31.70;43.40;;;;;;5052346;28;20044;-44
2022/08/14 11:58:35;;;;;;;4.20;3.13;;;31.80;42.90;;;;;;5050710;28;20479;-43
2022/08/14 12:01:05;;;;;;;3.20;2.90;;;31.90;42.80;;;;;;5052158;28;20091;-43
2022/08/14 12:03:46;;;;;;;3.28;2.97;;;32.00;42.50;;;;;;5051952;28;20178;-44
2022/08/14 12:06:18;;;;;;;3.17;2.97;;;32.10;42.40;;;;;;5051973;28;20087;-44
2022/08/14 12:08:52;;;;;;;4.00;3.47;;;32.10;42.10;;;;;;5051630;28;20125;-40
2022/08/14 12:11:19;;;;;;;3.30;3.00;;;32.20;42.00;;;;;;5050605;28;20461;-43
2022/08/14 12:13:45;;;;;;;5.68;3.40;;;32.30;41.90;;;;;;5052106;28;20052;-44
2022/08/14 12:16:15;;;;;;;3.28;3.08;;;32.30;41.90;;;;;;5052113;28;20025;-43
2022/08/14 12:18:47;;;;;;;3.00;2.80;;;32.30;41.70;;;;;;5051953;28;20052;-43
2022/08/14 12:21:16;;;;;;;3.50;3.20;;;32.30;41.60;;;;;;5051820;28;20032;-43
2022/08/14 12:23:42;;;;;;;3.40;3.10;;;32.40;41.60;;;;;;5051867;28;20032;-42
2022/08/14 12:26:13;;;;;;;3.40;3.13;;;32.50;41.20;;;;;;5051782;28;20037;-28
2022/08/14 12:28:38;;;;;;;3.15;2.95;;;32.50;41.10;;;;;;5051868;28;20028;-27
2022/08/14 12:31:34;;;;;;;3.10;2.90;;;32.60;41.20;;;;;;5052119;28;20476;-27
2022/08/14 12:34:03;;;;;;;2.97;2.78;;;32.70;40.80;;;;;;5050629;28;20059;-27
2022/08/14 12:36:29;;;;;;;3.28;2.97;;;32.80;40.00;;;;;;5055243;28;20035;-27
2022/08/14 12:38:56;;;;;;;3.17;2.95;;;33.00;40.40;;;;;;5055286;28;20452;-27
2022/08/14 12:41:25;;;;;;;3.13;2.92;;;33.10;40.20;;;;;;5055192;28;20040;-27
2022/08/14 12:43:53;;;;;;;3.45;2.92;;;33.10;40.20;;;;;;5055468;28;20373;-27
2022/08/14 12:46:22;;;;;;;3.15;2.95;;;33.20;40.10;;;;;;5055784;28;20029;-29
2022/08/14 12:48:48;;;;;;;3.55;2.90;;;33.30;40.00;;;;;;5053942;28;20040;-26
2022/08/14 12:51:24;;;;;;;3.38;2.80;;;33.30;39.90;;;;;;5055607;28;20041;-28
2022/08/14 12:53:54;;;;;;;3.13;2.90;;;33.50;39.90;;;;;;5055148;28;20051;-26
2022/08/14 12:56:24;;;;;;;3.45;3.15;;;33.50;39.70;;;;;;5054715;28;20025;-28
2022/08/14 12:58:52;;;;;;;4.22;3.28;;;33.60;39.60;;;;;;5055018;28;20039;-29
2022/08/14 13:01:20;;;;;;;3.50;3.20;;;33.70;39.50;;;;;;5054745;28;20090;-28
2022/08/14 13:03:46;;;;;;;4.60;3.10;;;33.80;39.50;;;;;;5054836;28;20109;-27
2022/08/14 13:06:14;;;;;;;3.10;2.80;;;33.90;39.60;;;;;;5054832;28;20025;-32
2022/08/14 13:08:41;;;;;;;3.25;2.95;;;34.00;39.50;;;;;;5054503;28;20024;-28
2022/08/14 13:11:11;;;;;;;3.65;2.92;;;34.00;39.30;;;;;;5054725;28;20028;-29